sensor_id;sensor_type;location;lat;lon;timestamp;temperature;humidity
32476;DHT22;18929;48.008;10.882;2023-03-23T00:01:28;13.40;99.90
32476;DHT22;18929;48.008;10.882;2023-03-23T00:03:58;13.40;99.90
32476;DHT22;18929;48.008;10.882;2023-03-23T00:06:26;13.00;99.90
32476;DHT22;18929;48.008;10.882;2023-03-23T00:08:53;13.20;99.90
32476;DHT22;18929;48.008;10.882;2023-03-23T00:11:25;13.20;99.90
32476;DHT22;18929;48.008;10.882;2023-03-23T00:13:54;13.20;99.90
32476;DHT22;18929;48.008;10.882;2023-03-23T00:16:23;13.10;99.90
32476;DHT22;18929;48.008;10.882;2023-03-23T00:18:54;13.10;99.90
32476;DHT22;18929;48.008;10.882;2023-03-23T00:21:24;13.10;99.90
32476;DHT22;18929;48.008;10.882;2023-03-23T00:23:59;13.00;99.90
32476;DHT22;18929;48.008;10.882;2023-03-23T00:26:26;13.00;99.90
32476;DHT22;18929;48.008;10.882;2023-03-23T00:28:55;13.00;99.90
32476;DHT22;18929;48.008;10.882;2023-03-23T00:31:21;13.00;99.90
32476;DHT22;18929;48.008;10.882;2023-03-23T00:33:48;13.00;99.90
32476;DHT22;18929;48.008;10.882;2023-03-23T00:36:15;13.00;99.90
32476;DHT22;18929;48.008;10.882;2023-03-23T00:38:44;13.00;99.90
32476;DHT22;18929;48.008;10.882;2023-03-23T00:41:12;13.00;99.90
32476;DHT22;18929;48.008;10.882;2023-03-23T00:43:40;12.90;99.90
32476;DHT22;18929;48.008;10.882;2023-03-23T00:46:07;12.80;99.90
32476;DHT22;18929;48.008;10.882;2023-03-23T00:48:35;12.30;99.90
32476;DHT22;18929;48.008;10.882;2023-03-23T00:51:06;12.80;99.90
32476;DHT22;18929;48.008;10.882;2023-03-23T00:53:35;12.80;99.90
32476;DHT22;18929;48.008;10.882;2023-03-23T00:56:04;12.90;99.90
32476;DHT22;18929;48.008;10.882;2023-03-23T00:58:30;12.80;99.90
32476;DHT22;18929;48.008;10.882;2023-03-23T01:00:57;12.50;99.90
32476;DHT22;18929;48.008;10.882;2023-03-23T01:03:24;12.70;99.90
32476;DHT22;18929;48.008;10.882;2023-03-23T01:05:53;12.70;99.90
32476;DHT22;18929;48.008;10.882;2023-03-23T01:08:21;12.70;99.90
32476;DHT22;18929;48.008;10.882;2023-03-23T01:10:48;12.60;99.90
32476;DHT22;18929;48.008;10.882;2023-03-23T01:13:16;12.60;99.90
32476;DHT22;18929;48.008;10.882;2023-03-23T01:15:43;12.70;99.90
32476;DHT22;18929;48.008;10.882;2023-03-23T01:18:10;12.60;99.90
32476;DHT22;18929;48.008;10.882;2023-03-23T01:20:37;12.50;99.90
32476;DHT22;18929;48.008;10.882;2023-03-23T01:23:04;12.50;99.90
32476;DHT22;18929;48.008;10.882;2023-03-23T01:25:34;12.40;99.90
32476;DHT22;18929;48.008;10.882;2023-03-23T01:28:01;12.40;99.90
32476;DHT22;18929;48.008;10.882;2023-03-23T01:30:30;12.40;99.90
32476;DHT22;18929;48.008;10.882;2023-03-23T01:32:57;12.40;99.90
32476;DHT22;18929;48.008;10.882;2023-03-23T01:35:24;12.50;99.90
32476;DHT22;18929;48.008;10.882;2023-03-23T01:37:51;12.40;99.90
32476;DHT22;18929;48.008;10.882;2023-03-23T01:40:17;12.50;99.90
32476;DHT22;18929;48.008;10.882;2023-03-23T01:42:45;12.40;99.90
32476;DHT22;18929;48.008;10.882;2023-03-23T01:45:22;12.40;99.90
32476;DHT22;18929;48.008;10.882;2023-03-23T01:47:51;12.40;99.90
32476;DHT22;18929;48.008;10.882;2023-03-23T01:50:21;12.40;99.90
32476;DHT22;18929;48.008;10.882;2023-03-23T01:52:49;12.30;99.90
32476;DHT22;18929;48.008;10.882;2023-03-23T01:55:18;12.20;99.90
32476;DHT22;18929;48.008;10.882;2023-03-23T01:57:45;12.10;99.90
32476;DHT22;18929;48.008;10.882;2023-03-23T02:00:12;12.30;99.90
32476;DHT22;18929;48.008;10.882;2023-03-23T02:02:41;12.30;99.90
32476;DHT22;18929;48.008;10.882;2023-03-23T02:05:11;12.20;99.90
32476;DHT22;18929;48.008;10.882;2023-03-23T02:07:39;12.10;99.90
32476;DHT22;18929;48.008;10.882;2023-03-23T02:10:06;12.20;99.90
32476;DHT22;18929;48.008;10.882;2023-03-23T02:12:33;12.30;99.90
32476;DHT22;18929;48.008;10.882;2023-03-23T02:15:00;12.10;99.90
32476;DHT22;18929;48.008;10.882;2023-03-23T02:17:29;12.10;99.90
32476;DHT22;18929;48.008;10.882;2023-03-23T02:20:02;12.10;99.90
32476;DHT22;18929;48.008;10.882;2023-03-23T02:22:52;11.90;99.90
32476;DHT22;18929;48.008;10.882;2023-03-23T02:25:31;11.90;99.90
32476;DHT22;18929;48.008;10.882;2023-03-23T02:28:04;12.00;99.90
32476;DHT22;18929;48.008;10.882;2023-03-23T02:30:48;11.90;99.90
32476;DHT22;18929;48.008;10.882;2023-03-23T02:33:28;11.90;99.90
32476;DHT22;18929;48.008;10.882;2023-03-23T02:35:56;11.90;99.90
32476;DHT22;18929;48.008;10.882;2023-03-23T02:38:26;11.90;99.90
32476;DHT22;18929;48.008;10.882;2023-03-23T02:40:54;12.00;99.90
32476;DHT22;18929;48.008;10.882;2023-03-23T02:43:22;11.90;99.90
32476;DHT22;18929;48.008;10.882;2023-03-23T02:45:51;11.90;99.90
32476;DHT22;18929;48.008;10.882;2023-03-23T02:48:19;11.90;99.90
32476;DHT22;18929;48.008;10.882;2023-03-23T02:50:49;11.80;99.90
32476;DHT22;18929;48.008;10.882;2023-03-23T02:53:18;11.80;99.90
32476;DHT22;18929;48.008;10.882;2023-03-23T02:55:45;11.80;99.90
32476;DHT22;18929;48.008;10.882;2023-03-23T02:58:13;11.80;99.90
32476;DHT22;18929;48.008;10.882;2023-03-23T03:00:40;11.80;99.90
32476;DHT22;18929;48.008;10.882;2023-03-23T03:03:10;11.70;99.90
32476;DHT22;18929;48.008;10.882;2023-03-23T03:05:40;11.60;99.90
32476;DHT22;18929;48.008;10.882;2023-03-23T03:08:13;11.90;99.90
32476;DHT22;18929;48.008;10.882;2023-03-23T03:10:45;11.90;99.90
32476;DHT22;18929;48.008;10.882;2023-03-23T03:13:14;11.80;99.90
32476;DHT22;18929;48.008;10.882;2023-03-23T03:15:45;11.60;99.90
32476;DHT22;18929;48.008;10.882;2023-03-23T03:18:16;11.70;99.90
32476;DHT22;18929;48.008;10.882;2023-03-23T03:20:45;11.60;99.90
32476;DHT22;18929;48.008;10.882;2023-03-23T03:23:15;11.50;99.90
32476;DHT22;18929;48.008;10.882;2023-03-23T03:25:42;11.60;99.90
32476;DHT22;18929;48.008;10.882;2023-03-23T03:28:14;11.30;99.90
32476;DHT22;18929;48.008;10.882;2023-03-23T03:30:41;11.30;99.90
32476;DHT22;18929;48.008;10.882;2023-03-23T03:33:09;11.40;99.90
32476;DHT22;18929;48.008;10.882;2023-03-23T03:35:37;11.40;99.90
32476;DHT22;18929;48.008;10.882;2023-03-23T03:38:05;11.50;99.90
32476;DHT22;18929;48.008;10.882;2023-03-23T03:40:34;11.60;99.90
32476;DHT22;18929;48.008;10.882;2023-03-23T03:43:01;11.60;99.90
32476;DHT22;18929;48.008;10.882;2023-03-23T03:45:28;11.60;99.90
32476;DHT22;18929;48.008;10.882;2023-03-23T03:47:55;11.50;99.90
32476;DHT22;18929;48.008;10.882;2023-03-23T03:50:22;11.40;99.90
32476;DHT22;18929;48.008;10.882;2023-03-23T03:52:50;11.60;99.90
32476;DHT22;18929;48.008;10.882;2023-03-23T03:55:16;11.60;99.90
32476;DHT22;18929;48.008;10.882;2023-03-23T04:00:35;11.40;99.90
32476;DHT22;18929;48.008;10.882;2023-03-23T04:03:01;11.50;99.90
32476;DHT22;18929;48.008;10.882;2023-03-23T04:05:28;11.60;99.90
32476;DHT22;18929;48.008;10.882;2023-03-23T04:07:55;11.50;99.90
32476;DHT22;18929;48.008;10.882;2023-03-23T04:10:27;11.40;99.90
32476;DHT22;18929;48.008;10.882;2023-03-23T04:12:55;11.30;99.90
32476;DHT22;18929;48.008;10.882;2023-03-23T04:15:22;11.30;99.90
32476;DHT22;18929;48.008;10.882;2023-03-23T04:17:50;11.30;99.90
32476;DHT22;18929;48.008;10.882;2023-03-23T04:20:17;11.30;99.90
32476;DHT22;18929;48.008;10.882;2023-03-23T04:22:44;11.40;99.90
32476;DHT22;18929;48.008;10.882;2023-03-23T04:25:15;11.40;99.90
32476;DHT22;18929;48.008;10.882;2023-03-23T04:27:42;11.40;99.90
32476;DHT22;18929;48.008;10.882;2023-03-23T04:30:12;11.30;99.90
32476;DHT22;18929;48.008;10.882;2023-03-23T04:32:39;11.30;99.90
32476;DHT22;18929;48.008;10.882;2023-03-23T04:35:09;11.30;99.90
32476;DHT22;18929;48.008;10.882;2023-03-23T04:37:38;11.10;99.90
32476;DHT22;18929;48.008;10.882;2023-03-23T04:40:06;11.10;99.90
32476;DHT22;18929;48.008;10.882;2023-03-23T04:42:39;11.20;99.90
32476;DHT22;18929;48.008;10.882;2023-03-23T04:45:06;11.30;99.90
32476;DHT22;18929;48.008;10.882;2023-03-23T04:47:36;11.30;99.90
32476;DHT22;18929;48.008;10.882;2023-03-23T04:50:06;11.30;99.90
32476;DHT22;18929;48.008;10.882;2023-03-23T04:52:35;11.20;99.90
32476;DHT22;18929;48.008;10.882;2023-03-23T04:55:03;11.20;99.90
32476;DHT22;18929;48.008;10.882;2023-03-23T04:57:30;11.20;99.90
32476;DHT22;18929;48.008;10.882;2023-03-23T04:59:57;11.40;99.90
32476;DHT22;18929;48.008;10.882;2023-03-23T05:02:24;11.30;99.90
32476;DHT22;18929;48.008;10.882;2023-03-23T05:04:55;11.40;99.90
32476;DHT22;18929;48.008;10.882;2023-03-23T05:07:22;11.40;99.90
32476;DHT22;18929;48.008;10.882;2023-03-23T05:09:50;11.50;99.90
32476;DHT22;18929;48.008;10.882;2023-03-23T05:12:17;11.30;99.90
32476;DHT22;18929;48.008;10.882;2023-03-23T05:14:44;11.10;99.90
32476;DHT22;18929;48.008;10.882;2023-03-23T05:17:11;11.00;99.90
32476;DHT22;18929;48.008;10.882;2023-03-23T05:19:44;10.80;99.90
32476;DHT22;18929;48.008;10.882;2023-03-23T05:22:12;10.60;99.90
32476;DHT22;18929;48.008;10.882;2023-03-23T05:24:40;11.00;99.90
32476;DHT22;18929;48.008;10.882;2023-03-23T05:27:09;10.90;99.90
32476;DHT22;18929;48.008;10.882;2023-03-23T05:29:36;10.90;99.90
32476;DHT22;18929;48.008;10.882;2023-03-23T05:32:06;10.60;99.90
32476;DHT22;18929;48.008;10.882;2023-03-23T05:34:33;10.40;99.90
32476;DHT22;18929;48.008;10.882;2023-03-23T05:37:00;10.40;99.90
32476;DHT22;18929;48.008;10.882;2023-03-23T05:39:28;10.40;99.90
32476;DHT22;18929;48.008;10.882;2023-03-23T05:41:55;10.50;99.90
32476;DHT22;18929;48.008;10.882;2023-03-23T05:44:23;10.00;99.90
32476;DHT22;18929;48.008;10.882;2023-03-23T05:46:50;9.70;99.90
32476;DHT22;18929;48.008;10.882;2023-03-23T05:49:17;10.00;99.90
32476;DHT22;18929;48.008;10.882;2023-03-23T05:51:44;9.80;99.90
32476;DHT22;18929;48.008;10.882;2023-03-23T05:54:11;10.10;99.90
32476;DHT22;18929;48.008;10.882;2023-03-23T05:56:38;10.60;99.90
32476;DHT22;18929;48.008;10.882;2023-03-23T05:59:05;10.90;99.90
32476;DHT22;18929;48.008;10.882;2023-03-23T06:01:33;11.00;99.90
32476;DHT22;18929;48.008;10.882;2023-03-23T06:04:00;11.10;99.90
32476;DHT22;18929;48.008;10.882;2023-03-23T06:06:27;11.10;99.90
32476;DHT22;18929;48.008;10.882;2023-03-23T06:08:54;11.00;99.90
32476;DHT22;18929;48.008;10.882;2023-03-23T06:11:22;10.90;99.90
32476;DHT22;18929;48.008;10.882;2023-03-23T06:13:49;10.70;99.90
32476;DHT22;18929;48.008;10.882;2023-03-23T06:16:16;10.70;99.90
32476;DHT22;18929;48.008;10.882;2023-03-23T06:18:45;10.70;99.90
32476;DHT22;18929;48.008;10.882;2023-03-23T06:21:16;10.70;99.90
32476;DHT22;18929;48.008;10.882;2023-03-23T07:37:15;12.80;99.90
32476;DHT22;18929;48.008;10.882;2023-03-23T07:39:42;13.00;99.90
32476;DHT22;18929;48.008;10.882;2023-03-23T07:42:09;12.90;99.90
32476;DHT22;18929;48.008;10.882;2023-03-23T07:44:36;13.10;99.90
32476;DHT22;18929;48.008;10.882;2023-03-23T07:47:03;13.20;99.90
32476;DHT22;18929;48.008;10.882;2023-03-23T07:49:29;13.40;99.90
32476;DHT22;18929;48.008;10.882;2023-03-23T07:51:58;13.30;99.90
32476;DHT22;18929;48.008;10.882;2023-03-23T07:54:28;13.10;99.90
32476;DHT22;18929;48.008;10.882;2023-03-23T07:56:55;12.60;99.90
32476;DHT22;18929;48.008;10.882;2023-03-23T07:59:22;12.50;99.90
32476;DHT22;18929;48.008;10.882;2023-03-23T08:01:49;12.40;99.90
32476;DHT22;18929;48.008;10.882;2023-03-23T08:04:16;12.40;99.90
32476;DHT22;18929;48.008;10.882;2023-03-23T08:06:43;12.70;99.90
32476;DHT22;18929;48.008;10.882;2023-03-23T08:09:10;13.30;99.90
32476;DHT22;18929;48.008;10.882;2023-03-23T08:11:38;13.20;99.90
32476;DHT22;18929;48.008;10.882;2023-03-23T08:14:05;13.20;99.90
32476;DHT22;18929;48.008;10.882;2023-03-23T08:16:32;12.90;99.90
32476;DHT22;18929;48.008;10.882;2023-03-23T08:18:59;13.30;99.90
32476;DHT22;18929;48.008;10.882;2023-03-23T08:21:26;13.00;99.90
32476;DHT22;18929;48.008;10.882;2023-03-23T08:23:53;13.50;99.90
32476;DHT22;18929;48.008;10.882;2023-03-23T08:26:20;13.80;99.90
32476;DHT22;18929;48.008;10.882;2023-03-23T08:28:49;13.90;99.90
32476;DHT22;18929;48.008;10.882;2023-03-23T08:31:15;14.20;99.90
32476;DHT22;18929;48.008;10.882;2023-03-23T08:33:43;14.30;99.90
32476;DHT22;18929;48.008;10.882;2023-03-23T08:36:11;14.00;99.90
32476;DHT22;18929;48.008;10.882;2023-03-23T08:38:37;14.10;99.90
32476;DHT22;18929;48.008;10.882;2023-03-23T08:41:05;14.30;99.90
32476;DHT22;18929;48.008;10.882;2023-03-23T08:43:33;14.20;99.90
32476;DHT22;18929;48.008;10.882;2023-03-23T08:46:01;14.20;99.90
32476;DHT22;18929;48.008;10.882;2023-03-23T08:48:32;13.90;99.90
32476;DHT22;18929;48.008;10.882;2023-03-23T08:51:00;13.90;99.90
32476;DHT22;18929;48.008;10.882;2023-03-23T08:53:27;13.40;99.90
32476;DHT22;18929;48.008;10.882;2023-03-23T08:56:04;13.70;99.90
32476;DHT22;18929;48.008;10.882;2023-03-23T08:58:34;13.80;99.90
32476;DHT22;18929;48.008;10.882;2023-03-23T09:01:03;13.80;99.90
32476;DHT22;18929;48.008;10.882;2023-03-23T09:03:40;14.40;99.90
32476;DHT22;18929;48.008;10.882;2023-03-23T09:06:08;14.60;99.90
32476;DHT22;18929;48.008;10.882;2023-03-23T09:08:38;14.30;99.90
32476;DHT22;18929;48.008;10.882;2023-03-23T09:11:06;14.20;99.90
32476;DHT22;18929;48.008;10.882;2023-03-23T09:13:34;14.60;99.90
32476;DHT22;18929;48.008;10.882;2023-03-23T09:16:07;13.90;99.90
32476;DHT22;18929;48.008;10.882;2023-03-23T09:18:50;13.50;99.90
32476;DHT22;18929;48.008;10.882;2023-03-23T09:21:17;13.70;99.90
32476;DHT22;18929;48.008;10.882;2023-03-23T09:23:47;13.30;99.90
32476;DHT22;18929;48.008;10.882;2023-03-23T09:26:14;13.60;99.90
32476;DHT22;18929;48.008;10.882;2023-03-23T09:28:41;14.00;99.90
32476;DHT22;18929;48.008;10.882;2023-03-23T09:31:11;13.50;99.90
32476;DHT22;18929;48.008;10.882;2023-03-23T09:33:38;13.90;99.90
32476;DHT22;18929;48.008;10.882;2023-03-23T09:39:12;14.60;99.90
32476;DHT22;18929;48.008;10.882;2023-03-23T12:56:26;16.60;99.90
32476;DHT22;18929;48.008;10.882;2023-03-23T12:58:56;16.60;99.90
32476;DHT22;18929;48.008;10.882;2023-03-23T13:01:26;16.20;99.90
32476;DHT22;18929;48.008;10.882;2023-03-23T13:03:56;16.40;99.90
32476;DHT22;18929;48.008;10.882;2023-03-23T13:06:25;16.60;99.90
32476;DHT22;18929;48.008;10.882;2023-03-23T13:08:56;16.30;99.90
32476;DHT22;18929;48.008;10.882;2023-03-23T13:11:27;16.30;99.90
32476;DHT22;18929;48.008;10.882;2023-03-23T13:13:59;16.10;99.90
32476;DHT22;18929;48.008;10.882;2023-03-23T13:16:29;16.10;99.90
32476;DHT22;18929;48.008;10.882;2023-03-23T13:19:02;16.20;99.90
32476;DHT22;18929;48.008;10.882;2023-03-23T13:21:31;15.90;99.90
32476;DHT22;18929;48.008;10.882;2023-03-23T13:23:59;16.00;99.90
32476;DHT22;18929;48.008;10.882;2023-03-23T13:26:29;16.20;99.90
32476;DHT22;18929;48.008;10.882;2023-03-23T13:28:57;16.20;99.90
32476;DHT22;18929;48.008;10.882;2023-03-23T13:31:25;15.80;99.90
32476;DHT22;18929;48.008;10.882;2023-03-23T13:34:03;16.00;99.90
32476;DHT22;18929;48.008;10.882;2023-03-23T13:36:33;16.20;99.90
32476;DHT22;18929;48.008;10.882;2023-03-23T13:39:01;16.60;99.90
32476;DHT22;18929;48.008;10.882;2023-03-23T13:41:30;16.70;99.90
32476;DHT22;18929;48.008;10.882;2023-03-23T13:44:14;16.70;99.90
32476;DHT22;18929;48.008;10.882;2023-03-23T13:46:42;16.80;99.90
32476;DHT22;18929;48.008;10.882;2023-03-23T13:49:16;16.80;99.90
32476;DHT22;18929;48.008;10.882;2023-03-23T13:51:51;16.70;99.90
32476;DHT22;18929;48.008;10.882;2023-03-23T13:54:23;16.90;99.90
32476;DHT22;18929;48.008;10.882;2023-03-23T13:56:57;16.90;99.90
32476;DHT22;18929;48.008;10.882;2023-03-23T13:59:34;17.00;99.90
32476;DHT22;18929;48.008;10.882;2023-03-23T14:05:34;16.80;99.90
32476;DHT22;18929;48.008;10.882;2023-03-23T14:19:49;16.50;99.90
32476;DHT22;18929;48.008;10.882;2023-03-23T14:22:18;16.70;99.90
32476;DHT22;18929;48.008;10.882;2023-03-23T14:24:48;16.80;99.90
32476;DHT22;18929;48.008;10.882;2023-03-23T14:27:30;16.90;99.90
32476;DHT22;18929;48.008;10.882;2023-03-23T14:30:01;16.50;99.90
32476;DHT22;18929;48.008;10.882;2023-03-23T14:32:36;16.50;99.90
32476;DHT22;18929;48.008;10.882;2023-03-23T14:35:17;16.70;99.90
32476;DHT22;18929;48.008;10.882;2023-03-23T14:37:51;16.80;99.90
32476;DHT22;18929;48.008;10.882;2023-03-23T14:40:40;17.20;99.90
32476;DHT22;18929;48.008;10.882;2023-03-23T15:29:26;16.60;99.90
32476;DHT22;18929;48.008;10.882;2023-03-23T15:32:46;16.30;99.90
32476;DHT22;18929;48.008;10.882;2023-03-23T15:35:02;16.50;99.90
32476;DHT22;18929;48.008;10.882;2023-03-23T15:37:41;16.20;99.90
32476;DHT22;18929;48.008;10.882;2023-03-23T15:40:13;16.00;99.90
32476;DHT22;18929;48.008;10.882;2023-03-23T15:42:41;16.20;99.90
32476;DHT22;18929;48.008;10.882;2023-03-23T15:47:56;16.30;99.90
32476;DHT22;18929;48.008;10.882;2023-03-23T15:50:32;16.30;99.90
32476;DHT22;18929;48.008;10.882;2023-03-23T15:52:59;16.30;99.90
32476;DHT22;18929;48.008;10.882;2023-03-23T15:55:27;16.50;99.90
32476;DHT22;18929;48.008;10.882;2023-03-23T15:57:55;16.50;99.90
32476;DHT22;18929;48.008;10.882;2023-03-23T16:00:24;16.50;99.90
32476;DHT22;18929;48.008;10.882;2023-03-23T16:02:54;16.60;99.90
32476;DHT22;18929;48.008;10.882;2023-03-23T16:05:22;16.70;99.90
32476;DHT22;18929;48.008;10.882;2023-03-23T16:07:49;16.60;99.90
32476;DHT22;18929;48.008;10.882;2023-03-23T16:10:17;16.60;99.90
32476;DHT22;18929;48.008;10.882;2023-03-23T16:12:44;16.70;99.90
32476;DHT22;18929;48.008;10.882;2023-03-23T16:15:11;16.60;99.90
32476;DHT22;18929;48.008;10.882;2023-03-23T16:17:39;16.50;99.90
32476;DHT22;18929;48.008;10.882;2023-03-23T16:20:17;16.80;99.90
32476;DHT22;18929;48.008;10.882;2023-03-23T16:22:45;17.30;99.90
32476;DHT22;18929;48.008;10.882;2023-03-23T16:25:12;17.60;99.90
32476;DHT22;18929;48.008;10.882;2023-03-23T16:27:39;17.70;99.90
32476;DHT22;18929;48.008;10.882;2023-03-23T16:30:14;18.00;99.90
32476;DHT22;18929;48.008;10.882;2023-03-23T16:32:42;18.00;99.90
32476;DHT22;18929;48.008;10.882;2023-03-23T16:35:11;18.30;99.90
32476;DHT22;18929;48.008;10.882;2023-03-23T16:37:45;18.40;99.90
32476;DHT22;18929;48.008;10.882;2023-03-23T16:42:48;18.30;99.90
32476;DHT22;18929;48.008;10.882;2023-03-23T16:45:17;18.20;99.90
32476;DHT22;18929;48.008;10.882;2023-03-23T16:47:48;17.90;99.90
32476;DHT22;18929;48.008;10.882;2023-03-23T16:50:16;17.90;99.90
32476;DHT22;18929;48.008;10.882;2023-03-23T16:52:45;18.20;99.90
32476;DHT22;18929;48.008;10.882;2023-03-23T16:55:13;18.00;99.90
32476;DHT22;18929;48.008;10.882;2023-03-23T16:57:41;18.00;99.90
32476;DHT22;18929;48.008;10.882;2023-03-23T17:00:09;18.10;99.90
32476;DHT22;18929;48.008;10.882;2023-03-23T17:02:39;18.20;99.90
32476;DHT22;18929;48.008;10.882;2023-03-23T17:05:06;18.10;99.90
32476;DHT22;18929;48.008;10.882;2023-03-23T17:07:33;18.00;99.90
32476;DHT22;18929;48.008;10.882;2023-03-23T17:10:02;18.20;99.90
32476;DHT22;18929;48.008;10.882;2023-03-23T17:12:29;18.30;99.90
32476;DHT22;18929;48.008;10.882;2023-03-23T17:14:55;18.40;99.90
32476;DHT22;18929;48.008;10.882;2023-03-23T17:17:22;18.20;99.90
32476;DHT22;18929;48.008;10.882;2023-03-23T17:19:49;18.40;99.90
32476;DHT22;18929;48.008;10.882;2023-03-23T17:22:16;18.00;99.90
32476;DHT22;18929;48.008;10.882;2023-03-23T17:24:43;18.10;99.90
32476;DHT22;18929;48.008;10.882;2023-03-23T17:27:13;18.00;99.90
32476;DHT22;18929;48.008;10.882;2023-03-23T17:29:41;18.10;99.90
32476;DHT22;18929;48.008;10.882;2023-03-23T17:32:08;18.50;99.90
32476;DHT22;18929;48.008;10.882;2023-03-23T17:34:35;18.30;99.90
32476;DHT22;18929;48.008;10.882;2023-03-23T17:37:02;18.30;99.90
32476;DHT22;18929;48.008;10.882;2023-03-23T17:39:29;18.50;99.90
32476;DHT22;18929;48.008;10.882;2023-03-23T17:41:59;18.50;99.90
32476;DHT22;18929;48.008;10.882;2023-03-23T17:44:27;18.50;99.90
32476;DHT22;18929;48.008;10.882;2023-03-23T17:46:54;18.60;99.90
32476;DHT22;18929;48.008;10.882;2023-03-23T17:49:21;18.30;99.90
32476;DHT22;18929;48.008;10.882;2023-03-23T17:51:48;18.50;99.90
32476;DHT22;18929;48.008;10.882;2023-03-23T17:54:15;18.50;99.90
32476;DHT22;18929;48.008;10.882;2023-03-23T17:56:42;18.50;99.90
32476;DHT22;18929;48.008;10.882;2023-03-23T17:59:09;18.50;99.90
32476;DHT22;18929;48.008;10.882;2023-03-23T18:01:38;18.50;99.90
32476;DHT22;18929;48.008;10.882;2023-03-23T18:04:05;18.40;99.90
32476;DHT22;18929;48.008;10.882;2023-03-23T18:06:32;18.40;99.90
32476;DHT22;18929;48.008;10.882;2023-03-23T18:08:59;18.40;99.90
32476;DHT22;18929;48.008;10.882;2023-03-23T18:11:26;18.30;99.90
32476;DHT22;18929;48.008;10.882;2023-03-23T18:13:53;18.30;99.90
32476;DHT22;18929;48.008;10.882;2023-03-23T18:16:21;18.20;99.90
32476;DHT22;18929;48.008;10.882;2023-03-23T18:18:49;18.10;99.90
32476;DHT22;18929;48.008;10.882;2023-03-23T18:21:16;18.00;99.90
32476;DHT22;18929;48.008;10.882;2023-03-23T18:23:43;18.10;99.90
32476;DHT22;18929;48.008;10.882;2023-03-23T18:26:10;18.00;99.90
32476;DHT22;18929;48.008;10.882;2023-03-23T18:28:37;18.20;99.90
32476;DHT22;18929;48.008;10.882;2023-03-23T18:31:06;18.00;99.90
32476;DHT22;18929;48.008;10.882;2023-03-23T18:33:33;17.90;99.90
32476;DHT22;18929;48.008;10.882;2023-03-23T18:36:04;17.80;99.90
32476;DHT22;18929;48.008;10.882;2023-03-23T18:38:31;17.90;99.90
32476;DHT22;18929;48.008;10.882;2023-03-23T18:40:58;17.80;99.90
32476;DHT22;18929;48.008;10.882;2023-03-23T18:43:25;17.80;99.90
32476;DHT22;18929;48.008;10.882;2023-03-23T18:45:53;17.70;99.90
32476;DHT22;18929;48.008;10.882;2023-03-23T18:48:21;17.80;99.90
32476;DHT22;18929;48.008;10.882;2023-03-23T18:50:48;17.90;99.90
32476;DHT22;18929;48.008;10.882;2023-03-23T18:53:17;17.90;99.90
32476;DHT22;18929;48.008;10.882;2023-03-23T18:55:44;17.80;99.90
32476;DHT22;18929;48.008;10.882;2023-03-23T18:58:12;17.80;99.90
32476;DHT22;18929;48.008;10.882;2023-03-23T19:00:39;17.80;99.90
32476;DHT22;18929;48.008;10.882;2023-03-23T19:03:06;17.60;99.90
32476;DHT22;18929;48.008;10.882;2023-03-23T19:05:34;17.70;99.90
32476;DHT22;18929;48.008;10.882;2023-03-23T19:08:01;17.80;99.90
32476;DHT22;18929;48.008;10.882;2023-03-23T19:10:30;17.60;99.90
32476;DHT22;18929;48.008;10.882;2023-03-23T19:12:57;17.60;99.90
32476;DHT22;18929;48.008;10.882;2023-03-23T19:15:23;17.60;99.90
32476;DHT22;18929;48.008;10.882;2023-03-23T19:17:50;17.70;99.90
32476;DHT22;18929;48.008;10.882;2023-03-23T19:20:20;17.60;99.90
32476;DHT22;18929;48.008;10.882;2023-03-23T19:22:47;17.60;99.90
32476;DHT22;18929;48.008;10.882;2023-03-23T19:25:14;17.70;99.90
32476;DHT22;18929;48.008;10.882;2023-03-23T19:27:43;17.70;99.90
32476;DHT22;18929;48.008;10.882;2023-03-23T19:32:57;17.50;99.90
32476;DHT22;18929;48.008;10.882;2023-03-23T19:35:24;17.50;99.90
32476;DHT22;18929;48.008;10.882;2023-03-23T19:37:51;17.50;99.90
32476;DHT22;18929;48.008;10.882;2023-03-23T19:40:17;17.30;99.90
32476;DHT22;18929;48.008;10.882;2023-03-23T19:42:46;17.20;99.90
32476;DHT22;18929;48.008;10.882;2023-03-23T19:45:12;17.10;99.90
32476;DHT22;18929;48.008;10.882;2023-03-23T19:47:39;17.20;99.90
32476;DHT22;18929;48.008;10.882;2023-03-23T19:52:50;16.90;99.90
32476;DHT22;18929;48.008;10.882;2023-03-23T19:55:17;17.00;99.90
32476;DHT22;18929;48.008;10.882;2023-03-23T19:57:45;17.10;99.90
32476;DHT22;18929;48.008;10.882;2023-03-23T20:00:12;17.10;99.90
32476;DHT22;18929;48.008;10.882;2023-03-23T20:02:39;17.20;99.90
32476;DHT22;18929;48.008;10.882;2023-03-23T20:05:06;17.30;99.90
32476;DHT22;18929;48.008;10.882;2023-03-23T20:07:33;17.10;99.90
32476;DHT22;18929;48.008;10.882;2023-03-23T20:10:00;17.30;99.90
32476;DHT22;18929;48.008;10.882;2023-03-23T20:12:27;17.30;99.90
32476;DHT22;18929;48.008;10.882;2023-03-23T20:14:56;17.20;99.90
32476;DHT22;18929;48.008;10.882;2023-03-23T20:17:23;17.20;99.90
32476;DHT22;18929;48.008;10.882;2023-03-23T20:19:50;17.30;99.90
32476;DHT22;18929;48.008;10.882;2023-03-23T20:22:17;16.90;99.90
32476;DHT22;18929;48.008;10.882;2023-03-23T20:24:44;17.20;99.90
32476;DHT22;18929;48.008;10.882;2023-03-23T20:27:11;17.00;99.90
32476;DHT22;18929;48.008;10.882;2023-03-23T20:29:38;16.80;99.90
32476;DHT22;18929;48.008;10.882;2023-03-23T20:32:07;17.00;99.90
32476;DHT22;18929;48.008;10.882;2023-03-23T20:34:35;17.10;99.90
32476;DHT22;18929;48.008;10.882;2023-03-23T20:37:02;17.10;99.90
32476;DHT22;18929;48.008;10.882;2023-03-23T20:39:29;17.00;99.90
32476;DHT22;18929;48.008;10.882;2023-03-23T20:41:59;16.90;99.90
32476;DHT22;18929;48.008;10.882;2023-03-23T20:44:28;16.80;99.90
32476;DHT22;18929;48.008;10.882;2023-03-23T20:46:59;16.50;99.90
32476;DHT22;18929;48.008;10.882;2023-03-23T20:49:29;16.30;99.90
32476;DHT22;18929;48.008;10.882;2023-03-23T20:51:57;16.80;99.90
32476;DHT22;18929;48.008;10.882;2023-03-23T20:54:24;16.80;99.90
32476;DHT22;18929;48.008;10.882;2023-03-23T20:56:54;16.00;99.90
32476;DHT22;18929;48.008;10.882;2023-03-23T20:59:23;16.50;99.90
32476;DHT22;18929;48.008;10.882;2023-03-23T21:01:50;15.60;99.90
32476;DHT22;18929;48.008;10.882;2023-03-23T21:04:18;15.60;99.90
32476;DHT22;18929;48.008;10.882;2023-03-23T21:06:46;16.20;99.90
32476;DHT22;18929;48.008;10.882;2023-03-23T21:09:14;16.20;99.90
32476;DHT22;18929;48.008;10.882;2023-03-23T21:11:55;16.40;99.90